Date,TemperatureHighF,TemperatureAvgF,TemperatureLowF,DewpointHighF,DewpointAvgF,DewpointLowF,HumidityHigh,HumidityAvg,HumidityLow,PressureMaxIn,PressureMinIn,WindSpeedMaxMPH,WindSpeedAvgMPH,GustSpeedMaxMPH,PrecipitationSumIn
2013-12-1,73.9,66.8,59.0,72.0,65.6,59.0,99,96,89,30.12,29.96,6,0,8,0.03
2013-12-2,69.5,65.1,58.3,67.0,63.7,58.0,99,95,86,29.95,29.84,5,0,8,0.04
2013-12-3,78.5,68.3,57.2,66.0,63.3,57.0,99,85,61,30.00,29.91,3,0,6,0.00
2013-12-4,79.6,69.8,61.3,72.0,65.8,61.0,99,88,68,30.10,30.00,3,0,6,0.01
2013-12-5,83.2,71.9,61.6,72.0,67.2,61.0,99,86,66,30.18,30.09,9,1,11,0.00
2013-12-6,81.5,72.0,64.1,74.0,67.6,64.0,99,87,67,30.20,30.10,6,1,11,0.01
2013-12-7,81.3,70.0,62.8,73.0,67.5,62.0,98,92,72,30.23,30.15,3,0,7,0.03
2013-12-8,82.2,73.2,67.2,74.0,69.1,66.0,99,88,68,30.22,30.13,10,1,12,0.01
2013-12-9,84.3,75.4,66.1,72.0,68.2,64.0,96,79,51,30.20,30.11,5,1,11,0.00
2013-12-10,83.5,72.6,63.6,76.0,69.0,63.0,99,89,66,30.17,30.08,3,0,9,0.01
2013-12-11,84.7,73.5,65.8,74.0,68.5,65.0,99,85,55,30.22,30.13,3,0,7,0.00
2013-12-12,76.6,68.4,61.3,71.0,64.5,58.0,99,88,69,30.24,30.15,10,1,13,0.00
2013-12-13,77.8,70.7,59.5,67.0,62.6,57.0,94,76,63,30.21,30.11,7,1,10,0.00
2013-12-14,82.0,75.7,70.7,73.0,70.3,67.0,95,84,70,30.12,29.99,8,1,14,0.00
2013-12-15,80.5,74.0,69.8,76.0,71.1,66.0,98,91,81,30.08,29.94,9,1,11,0.00
2013-12-16,74.7,66.2,58.4,66.0,60.4,56.0,92,82,66,30.17,30.05,7,1,9,0.00
2013-12-17,78.1,65.2,56.2,64.0,58.2,54.0,95,80,56,30.20,30.11,4,1,9,0.00
2013-12-18,74.7,63.9,55.7,59.0,56.5,53.0,96,79,54,30.25,30.16,6,1,9,0.00
2013-12-19,78.0,65.3,53.8,62.0,58.0,52.0,94,79,55,30.25,30.17,5,0,12,0.00
2013-12-20,81.6,69.9,59.2,70.0,64.8,58.0,98,85,67,30.20,30.11,6,1,11,0.00
2013-12-21,84.6,74.3,64.3,74.0,69.5,64.0,98,86,66,30.16,30.07,8,1,13,0.00
2013-12-22,84.4,77.9,74.4,73.0,71.9,70.0,92,82,66,30.17,30.09,8,2,12,0.00
2013-12-23,85.2,76.8,70.7,75.0,71.9,69.0,96,85,68,30.19,30.11,6,1,11,0.00
2013-12-24,80.6,69.5,65.0,73.0,65.8,59.0,99,88,76,30.18,30.11,8,1,12,0.00
2013-12-25,76.1,71.4,69.4,68.0,64.9,63.0,86,80,70,30.19,30.12,6,1,9,0.00
2013-12-26,79.4,72.6,66.8,71.0,68.1,65.0,95,86,73,30.18,30.08,3,0,10,0.00
2013-12-27,82.5,73.7,66.6,72.0,68.7,66.0,98,85,68,30.20,30.11,5,1,9,0.00
2013-12-28,79.8,75.3,71.3,72.0,70.1,67.0,94,84,77,30.19,30.03,7,1,12,0.01
2013-12-29,81.4,75.9,71.8,75.0,72.8,71.0,96,90,78,30.04,29.93,5,1,12,0.00
2013-12-30,77.3,70.8,65.9,71.0,67.9,62.0,97,90,78,30.16,29.98,4,0,8,0.00
2013-12-31,79.1,71.0,65.0,68.0,63.5,61.0,89,77,64,30.24,30.12,5,1,12,0.00